Time;durP1;ratioP1;P1;durP2;ratioP2;P2;SDS_P1;SDS_P2;PMS_P1;PMS_P2;Temp;Humidity;BMP_temperature;BMP_pressure;BME280_temperature;BME280_humidity;BME280_pressure;Samples;Min_cycle;Max_cycle;Signal;HPM_P1;HPM_P2
2023/09/28 00:00:38;;;;;;;4.05;3.78;;;;;;;16.15;88.17;63667.59;5064206;28;20224;-79
2023/09/28 00:03:06;;;;;;;8.10;4.30;;;;;;;16.07;88.38;63659.28;5058622;28;20264;-78
2023/09/28 00:05:34;;;;;;;7.38;4.20;;;;;;;15.98;89.70;63652.50;5060289;28;20220;-79
2023/09/28 00:08:01;;;;;;;7.80;3.80;;;;;;;15.86;90.61;63639.50;5055851;28;20198;-80
2023/09/28 00:10:47;;;;;;;4.60;3.95;;;;;;;15.82;90.72;63638.44;5051868;28;20221;-79
2023/09/28 00:13:13;;;;;;;4.35;3.90;;;;;;;15.76;91.39;63627.06;5069589;28;20200;-79
2023/09/28 00:15:41;;;;;;;4.40;4.00;;;;;;;15.66;92.20;63616.66;5068542;28;20228;-79
2023/09/28 00:18:08;;;;;;;9.27;4.57;;;;;;;15.60;92.74;63609.91;5052800;28;20225;-79
2023/09/28 00:20:35;;;;;;;9.02;3.90;;;;;;;15.51;93.56;63603.63;5051365;28;20236;-79
2023/09/28 00:25:47;;;;;;;3.83;3.53;;;;;;;15.44;93.24;63593.78;5050843;28;20243;-79
2023/09/28 00:28:33;;;;;;;5.63;4.40;;;;;;;15.38;93.52;63584.44;5050636;28;20201;-81
2023/09/28 00:33:46;;;;;;;7.30;4.32;;;;;;;15.32;94.74;63583.34;5056109;28;20197;-80
2023/09/28 00:38:58;;;;;;;6.40;4.43;;;;;;;15.26;93.95;63574.53;5057175;28;20257;-80
2023/09/28 00:41:24;;;;;;;6.45;3.63;;;;;;;15.20;93.86;63568.84;5058855;28;20227;-80
2023/09/28 00:43:51;;;;;;;8.82;3.95;;;;;;;15.20;94.04;63570.88;5058370;28;20185;-79
2023/09/28 00:46:17;;;;;;;4.63;3.53;;;;;;;15.22;94.25;63568.31;5062079;28;20224;-79
2023/09/28 00:48:59;;;;;;;5.40;3.60;;;;;;;15.22;95.13;63575.53;5052133;28;20202;-79
2023/09/28 00:51:27;;;;;;;4.03;3.63;;;;;;;15.24;95.26;63575.03;5055342;28;20209;-79
2023/09/28 00:54:14;;;;;;;5.80;3.67;;;;;;;15.20;95.17;63568.84;5054580;28;20213;-80
2023/09/28 00:56:58;;;;;;;9.73;4.25;;;;;;;15.15;95.73;63568.78;5068460;28;20261;-80
2023/09/28 00:59:25;;;;;;;7.10;4.18;;;;;;;15.15;96.48;63565.69;5066658;28;20285;-79
2023/09/28 01:01:54;;;;;;;4.22;3.83;;;;;;;15.22;96.20;63573.47;5070570;28;20197;-80
2023/09/28 01:04:23;;;;;;;5.22;4.05;;;;;;;15.14;96.63;63562.06;5059029;28;20228;-81
2023/09/28 01:06:49;;;;;;;3.65;3.38;;;;;;;15.13;97.15;63566.16;5059854;28;20279;-79
2023/09/28 01:09:17;;;;;;;5.53;4.32;;;;;;;15.08;98.32;63553.78;5056064;28;20229;-81
2023/09/28 01:11:45;;;;;;;4.40;4.07;;;;;;;15.07;98.59;63555.84;5068153;28;20217;-80
2023/09/28 01:14:32;;;;;;;4.93;3.53;;;;;;;15.04;99.41;63552.72;5073669;28;20221;-81
2023/09/28 01:20:10;;;;;;;7.25;4.00;;;;;;;14.99;100.00;63544.97;5063743;28;20235;-80
2023/09/28 01:22:37;;;;;;;7.18;4.28;;;;;;;15.04;100.00;63552.19;5073905;28;20378;-80
2023/09/28 01:25:23;;;;;;;4.65;3.80;;;;;;;15.07;100.00;63563.00;5065278;28;20289;-80
2023/09/28 01:27:49;;;;;;;7.85;4.35;;;;;;;15.06;100.00;63554.78;5063195;28;20208;-80
2023/09/28 01:30:36;;;;;;;7.32;4.57;;;;;;;15.04;100.00;63554.75;5064961;28;20221;-80
2023/09/28 01:33:02;;;;;;;4.55;3.72;;;;;;;15.03;100.00;63554.25;5068873;28;20197;-80
2023/09/28 01:35:30;;;;;;;6.32;4.15;;;;;;;15.05;100.00;63553.22;5061724;28;20256;-80
2023/09/28 01:38:35;;;;;;;5.82;3.80;;;;;;;14.96;100.00;63544.41;5058786;28;20215;-79
2023/09/28 01:41:02;;;;;;;6.00;3.65;;;;;;;14.93;100.00;63541.28;5054102;28;20221;-80
2023/09/28 01:43:29;;;;;;;7.97;4.72;;;;;;;14.85;100.00;63537.59;5066891;28;20196;-80
2023/09/28 01:45:55;;;;;;;7.90;3.97;;;;;;;14.87;99.80;63535.06;5058077;28;20225;-81
2023/09/28 01:51:07;;;;;;;8.63;4.05;;;;;;;14.95;98.79;63540.28;5068968;28;20259;-80
2023/09/28 01:53:52;;;;;;;4.80;3.22;;;;;;;14.95;97.25;63542.84;5057044;28;20261;-80
2023/09/28 01:56:21;;;;;;;4.13;3.15;;;;;;;14.96;95.55;63541.84;5055429;28;20233;-81
2023/09/28 01:58:47;;;;;;;6.50;3.35;;;;;;;15.02;91.86;63548.06;5061141;28;20208;-79
2023/09/28 02:01:22;;;;;;;5.25;2.95;;;;;;;15.09;91.62;63557.41;5055547;28;20190;-79
2023/09/28 02:03:48;;;;;;;3.55;2.63;;;;;;;15.08;90.32;63556.88;5052500;28;20204;-79
2023/09/28 02:06:15;;;;;;;3.95;3.22;;;;;;;15.02;91.01;63552.69;5065585;28;20519;-78
2023/09/28 02:11:28;;;;;;;2.90;2.70;;;;;;;15.01;87.49;63552.16;5060316;28;20223;-78
2023/09/28 02:13:54;;;;;;;6.35;3.28;;;;;;;14.96;87.41;63543.91;5070894;28;20194;-80
2023/09/28 02:16:22;;;;;;;6.45;2.63;;;;;;;15.02;83.83;63545.00;5071891;28;20236;-79
2023/09/28 02:18:48;;;;;;;4.13;2.83;;;;;;;14.96;83.86;63541.34;5070912;28;20521;-79
2023/09/28 02:21:33;;;;;;;5.82;2.90;;;;;;;15.00;83.63;63550.59;5055829;28;20198;-79
2023/09/28 02:24:19;;;;;;;4.15;2.72;;;;;;;14.95;84.75;63542.84;5050358;28;20233;-78
2023/09/28 02:29:51;;;;;;;3.25;2.55;;;;;;;14.89;82.02;63539.69;5059850;28;20231;-78
2023/09/28 02:32:16;;;;;;;3.05;2.75;;;;;;;14.91;81.61;63541.25;5063580;28;20205;-78
2023/09/28 02:34:43;;;;;;;5.82;2.75;;;;;;;14.97;82.46;63547.50;5071211;28;20256;-79
2023/09/28 02:37:11;;;;;;;3.38;2.33;;;;;;;14.95;81.77;63545.94;5063529;28;20261;-78
2023/09/28 02:39:39;;;;;;;5.40;2.85;;;;;;;14.97;80.56;63545.44;5060230;28;20218;-79
2023/09/28 02:42:07;;;;;;;3.58;3.03;;;;;;;14.97;80.54;63545.44;5052947;28;20525;-78
2023/09/28 02:44:34;;;;;;;5.03;2.80;;;;;;;14.90;81.94;63543.31;5054185;28;20240;-77
2023/09/28 02:47:04;;;;;;;3.17;2.90;;;;;;;14.91;81.30;63538.69;5060822;28;20277;-79
2023/09/28 02:49:32;;;;;;;4.97;2.45;;;;;;;14.90;81.81;63538.19;5065676;28;20217;-79
2023/09/28 02:52:17;;;;;;;6.65;3.03;;;;;;;14.93;80.21;63543.84;5066905;28;20192;-80
2023/09/28 02:55:06;;;;;;;3.13;2.60;;;;;;;14.94;80.67;63544.88;5069998;28;20242;-79
2023/09/28 02:57:35;;;;;;;5.18;2.58;;;;;;;14.94;80.36;63542.31;5057431;28;20193;-77
2023/09/28 03:00:11;;;;;;;2.75;2.58;;;;;;;14.93;79.68;63546.41;5071309;28;20628;-79
2023/09/28 03:02:39;;;;;;;2.20;2.10;;;;;;;14.95;79.87;63540.81;5068456;28;20390;-79
2023/09/28 03:05:07;;;;;;;3.00;2.80;;;;;;;15.01;79.71;63547.03;5070086;28;20260;-79
2023/09/28 03:07:35;;;;;;;4.28;2.65;;;;;;;15.02;80.01;63550.13;5054190;28;20198;-79
2023/09/28 03:10:05;;;;;;;8.02;3.13;;;;;;;14.95;80.23;63545.41;5050666;28;20263;-79
2023/09/28 03:12:31;;;;;;;6.80;2.75;;;;;;;14.96;80.29;63549.03;5056952;28;20264;-79
2023/09/28 03:15:04;;;;;;;3.75;2.58;;;;;;;14.92;80.81;63545.38;5059757;28;20557;-81
2023/09/28 03:17:30;;;;;;;4.60;2.97;;;;;;;15.00;80.61;63553.16;5056515;28;20204;-79
2023/09/28 03:19:57;;;;;;;7.10;2.30;;;;;;;15.02;80.05;63552.69;5069035;28;20285;-78
2023/09/28 03:25:16;;;;;;;3.20;3.00;;;;;;;15.06;79.88;63556.84;5060940;28;20281;-80
2023/09/28 03:27:43;;;;;;;3.13;2.55;;;;;;;15.00;80.13;63546.00;5051616;28;20205;-80
2023/09/28 03:30:14;;;;;;;4.88;2.83;;;;;;;14.93;80.58;63538.72;5052416;28;20425;-81
2023/09/28 03:32:42;;;;;;;4.47;2.65;;;;;;;14.92;79.76;63545.38;5066176;28;20219;-81
2023/09/28 03:35:10;;;;;;;2.50;2.40;;;;;;;14.99;79.61;63547.53;5053006;28;20465;-79
2023/09/28 03:37:59;;;;;;;5.65;2.38;;;;;;;14.89;80.23;63536.63;5053901;28;20198;-80
2023/09/28 03:40:33;;;;;;;8.57;3.05;;;;;;;14.90;82.06;63537.66;5053529;28;20224;-80
2023/09/28 03:43:01;;;;;;;3.25;2.85;;;;;;;14.89;82.14;63534.56;5055298;28;20214;-81
2023/09/28 03:45:30;;;;;;;7.60;3.65;;;;;;;14.91;81.75;63539.22;5053831;28;20263;-79
2023/09/28 03:47:57;;;;;;;5.32;2.90;;;;;;;14.93;82.38;63546.41;5055283;28;20209;-82
2023/09/28 03:50:25;;;;;;;6.13;2.97;;;;;;;15.00;82.46;63546.00;5055670;28;20229;-80
2023/09/28 03:53:15;;;;;;;2.83;2.63;;;;;;;14.99;82.32;63547.53;5056256;28;20271;-80
2023/09/28 03:55:42;;;;;;;3.58;3.10;;;;;;;14.96;82.86;63544.41;5053014;28;20253;-79
2023/09/28 03:58:10;;;;;;;5.07;2.83;;;;;;;14.96;82.69;63549.03;5052808;28;20237;-80
2023/09/28 04:03:24;;;;;;;3.55;2.42;;;;;;;15.03;81.59;63556.81;5053905;28;20213;-81
2023/09/28 04:05:51;;;;;;;4.13;2.90;;;;;;;15.09;82.98;63557.41;5061543;28;20243;-80
2023/09/28 04:11:22;;;;;;;2.75;2.55;;;;;;;15.08;81.26;63554.31;5056012;28;20256;-81
2023/09/28 04:16:54;;;;;;;6.43;2.80;;;;;;;15.19;81.34;63567.25;5055143;28;20240;-78
2023/09/28 04:19:21;;;;;;;2.85;2.60;;;;;;;15.21;81.06;63569.34;5060754;28;20256;-79
2023/09/28 04:21:49;;;;;;;5.18;2.58;;;;;;;15.25;79.63;63573.50;5050662;28;20201;-80
2023/09/28 04:24:16;;;;;;;5.65;2.72;;;;;;;15.34;79.31;63582.84;5054332;28;20251;-79
2023/09/28 04:26:43;;;;;;;7.40;2.30;;;;;;;15.38;79.39;63587.00;5055177;28;20201;-80
2023/09/28 04:31:55;;;;;;;4.25;2.90;;;;;;;15.51;78.52;63603.13;5065001;28;20204;-79
2023/09/28 04:34:24;;;;;;;3.17;2.75;;;;;;;15.53;77.74;63605.19;5052828;28;20214;-82
2023/09/28 04:36:52;;;;;;;5.68;2.70;;;;;;;15.56;77.43;63605.75;5062249;28;20236;-80
2023/09/28 04:39:18;;;;;;;2.55;2.35;;;;;;;15.53;77.80;63607.75;5071648;28;20213;-79
2023/09/28 04:41:47;;;;;;;3.75;2.75;;;;;;;15.57;77.58;63609.88;5068237;28;20193;-81
2023/09/28 04:44:14;;;;;;;3.90;2.72;;;;;;;15.64;77.13;63614.59;5058521;28;20416;-79
2023/09/28 04:46:42;;;;;;;3.22;2.70;;;;;;;15.75;75.96;63625.50;5050786;28;20206;-80
2023/09/28 04:49:11;;;;;;;4.63;2.05;;;;;;;15.82;74.74;63635.88;5052070;28;20537;-79
2023/09/28 04:54:23;;;;;;;3.80;2.17;;;;;;;16.19;71.91;63676.38;5054216;28;20244;-80
2023/09/28 04:56:50;;;;;;;2.33;2.22;;;;;;;16.30;73.42;63682.69;5067543;28;20243;-78
2023/09/28 04:59:18;;;;;;;5.30;2.70;;;;;;;16.45;72.05;63697.75;5072895;28;20220;-81
2023/09/28 05:04:50;;;;;;;2.72;1.90;;;;;;;16.68;70.89;63719.69;5060592;28;20267;-80
2023/09/28 05:07:35;;;;;;;7.03;2.30;;;;;;;16.81;70.54;63735.78;5056547;28;20193;-79
2023/09/28 05:10:22;;;;;;;7.28;2.35;;;;;;;16.83;71.08;63734.75;5063909;28;20229;-82
2023/09/28 05:12:55;;;;;;;4.57;3.00;;;;;;;16.98;71.76;63756.03;5067465;28;20205;-80
2023/09/28 05:15:22;;;;;;;9.60;2.95;;;;;;;17.05;70.95;63758.19;5055117;28;20243;-80
2023/09/28 05:20:36;;;;;;;4.28;2.95;;;;;;;17.28;69.74;63781.59;5059826;28;20273;-79
2023/09/28 05:23:07;;;;;;;5.25;2.85;;;;;;;17.40;68.31;63801.81;5071411;28;20207;-83
2023/09/28 05:25:35;;;;;;;3.50;3.17;;;;;;;17.48;68.95;63802.44;5075577;28;20209;-80
2023/09/28 05:30:48;;;;;;;2.85;2.65;;;;;;;17.74;68.30;63834.16;5053634;28;20290;-80
2023/09/28 05:33:19;;;;;;;2.97;2.40;;;;;;;17.70;65.06;63829.97;5065163;28;20509;-81
2023/09/28 05:35:49;;;;;;;6.10;2.63;;;;;;;17.80;64.53;63840.38;5057729;28;20426;-80
2023/09/28 05:38:16;;;;;;;6.07;3.20;;;;;;;17.82;64.69;63839.91;5054547;28;20224;-80
2023/09/28 05:40:43;;;;;;;5.05;3.33;;;;;;;17.85;64.84;63848.16;5053813;28;20221;-80
2023/09/28 05:43:11;;;;;;;6.13;3.45;;;;;;;17.84;64.89;63847.13;5055139;28;20211;-80
2023/09/28 05:45:38;;;;;;;4.40;2.83;;;;;;;17.96;65.32;63855.00;5056587;28;20279;-80
2023/09/28 05:48:05;;;;;;;5.20;2.15;;;;;;;17.96;65.69;63859.63;5062167;28;20208;-82
2023/09/28 05:50:33;;;;;;;4.35;2.60;;;;;;;17.92;66.09;63853.41;5054256;28;20291;-81
2023/09/28 05:55:45;;;;;;;4.00;2.45;;;;;;;18.07;64.07;63866.47;5069328;28;20243;-81
2023/09/28 05:58:12;;;;;;;4.72;2.53;;;;;;;18.19;64.48;63878.97;5071186;28;20200;-79
2023/09/28 06:00:40;;;;;;;3.17;2.40;;;;;;;18.33;65.01;63898.69;5067394;28;20233;-80
2023/09/28 06:03:07;;;;;;;6.68;4.30;;;;;;;18.33;65.23;63893.53;5056469;28;20307;-79
2023/09/28 06:05:34;;;;;;;3.75;2.83;;;;;;;18.41;66.44;63901.91;5064866;28;20251;-79
2023/09/28 06:10:55;;;;;;;7.60;2.65;;;;;;;18.39;65.92;63896.69;5053488;28;20296;-80
2023/09/28 06:13:23;;;;;;;2.97;2.78;;;;;;;18.58;64.78;63921.16;5070357;28;20196;-80
2023/09/28 06:15:50;;;;;;;16.23;4.00;;;;;;;18.18;64.11;63877.41;5065534;28;20336;-78
2023/09/28 06:18:20;;;;;;;10.45;4.03;;;;;;;18.00;66.84;63858.66;5069918;28;20264;-80
2023/09/28 06:20:48;;;;;;;6.25;4.57;;;;;;;18.27;68.85;63882.13;5072279;28;20507;-80
2023/09/28 06:23:35;;;;;;;8.25;3.75;;;;;;;18.22;68.15;63886.72;5074679;28;20445;-80
2023/09/28 06:26:21;;;;;;;7.32;3.03;;;;;;;18.26;67.05;63888.81;5063536;28;20220;-78
2023/09/28 06:28:48;;;;;;;19.13;5.03;;;;;;;18.09;66.28;63868.53;5072080;28;20203;-78
2023/09/28 06:31:18;;;;;;;15.90;4.43;;;;;;;18.06;66.93;63864.91;5069066;28;20200;-79
2023/09/28 06:33:45;;;;;;;4.72;4.32;;;;;;;18.00;68.48;63861.75;5066502;28;20220;-79
2023/09/28 06:36:12;;;;;;;10.35;4.97;;;;;;;17.90;68.05;63848.22;5069346;28;20312;-79
2023/09/28 06:38:41;;;;;;;14.65;4.47;;;;;;;17.95;67.46;63856.53;5072491;28;20252;-81
2023/09/28 06:41:26;;;;;;;9.10;4.00;;;;;;;17.89;66.12;63847.19;5069686;28;20224;-77
2023/09/28 06:44:12;;;;;;;10.07;4.50;;;;;;;17.77;66.57;63834.69;5052673;28;20232;-78
2023/09/28 06:46:39;;;;;;;9.93;4.85;;;;;;;17.82;65.50;63843.00;5052351;28;20365;-79
2023/09/28 06:49:44;;;;;;;9.60;4.53;;;;;;;17.81;67.29;63844.53;5054677;28;20202;-78
2023/09/28 06:52:14;;;;;;;7.22;3.85;;;;;;;18.23;64.94;63882.59;5059703;28;20204;-80
2023/09/28 06:54:43;;;;;;;9.00;4.25;;;;;;;18.47;63.04;63907.09;5060481;28;20228;-80
2023/09/28 06:57:10;;;;;;;9.77;5.03;;;;;;;18.56;63.57;63917.00;5062081;28;20241;-80
2023/09/28 07:02:21;;;;;;;13.27;4.40;;;;;;;18.53;62.76;63918.53;5058566;28;20199;-80
2023/09/28 07:04:48;;;;;;;8.48;4.10;;;;;;;18.34;61.82;63894.06;5071156;28;20541;-77
2023/09/28 07:07:17;;;;;;;9.93;4.07;;;;;;;18.22;63.18;63879.00;5061680;28;20209;-77
2023/09/28 07:09:47;;;;;;;5.93;3.53;;;;;;;18.25;63.83;63884.69;5070996;28;20237;-78
2023/09/28 07:12:34;;;;;;;11.13;4.28;;;;;;;18.46;62.46;63908.66;5069937;28;20196;-80
2023/09/28 07:15:19;;;;;;;8.00;3.55;;;;;;;18.66;61.16;63929.47;5050768;28;20226;-80
2023/09/28 07:17:46;;;;;;;12.95;4.78;;;;;;;18.88;60.35;63952.94;5061514;28;20452;-79
2023/09/28 07:20:15;;;;;;;8.77;4.75;;;;;;;18.97;59.73;63959.22;5053657;28;20530;-78
2023/09/28 07:22:53;;;;;;;16.52;4.35;;;;;;;18.71;60.36;63934.69;5056134;28;20240;-82
2023/09/28 07:25:40;;;;;;;13.50;6.35;;;;;;;18.60;61.82;63921.19;5052960;28;20225;-82
2023/09/28 07:28:07;;;;;;;4.93;3.85;;;;;;;18.94;59.52;63961.78;5066556;28;20224;-79
2023/09/28 07:30:35;;;;;;;12.43;4.68;;;;;;;19.12;61.02;63977.44;5053154;28;20240;-79
2023/09/28 07:35:48;;;;;;;8.32;4.68;;;;;;;19.72;59.59;64040.03;5062540;28;20359;-80
2023/09/28 07:38:15;;;;;;;23.30;13.35;;;;;;;19.81;62.90;64052.00;5071900;28;20231;-81
2023/09/28 07:43:34;;;;;;;4.75;3.28;;;;;;;20.59;57.83;64128.25;5053136;28;20181;-81
2023/09/28 07:49:41;;;;;;;9.73;3.65;;;;;;;20.88;56.92;64163.19;5065270;28;20200;-80
2023/09/28 07:52:09;;;;;;;9.45;4.28;;;;;;;21.16;57.25;64186.72;5062917;28;20204;-80
2023/09/28 07:54:37;;;;;;;6.15;4.25;;;;;;;21.12;55.83;64182.56;5058549;28;20221;-79
2023/09/28 08:02:59;;;;;;;5.63;4.43;;;;;;;20.90;56.80;64159.56;5054202;28;20254;-80
2023/09/28 08:05:26;;;;;;;8.55;3.40;;;;;;;20.79;57.76;64148.09;5056171;28;20259;-80
2023/09/28 08:07:53;;;;;;;9.65;3.03;;;;;;;21.11;56.64;64182.03;5060182;28;20197;-82
2023/09/28 08:10:39;;;;;;;6.40;2.60;;;;;;;21.22;55.51;64193.53;5057801;28;20271;-80
2023/09/28 08:15:55;;;;;;;2.85;2.33;;;;;;;21.38;54.91;64210.22;5058396;28;20289;-80
2023/09/28 08:18:23;;;;;;;3.00;2.70;;;;;;;21.36;54.37;64212.81;5058584;28;20209;-80
2023/09/28 08:21:08;;;;;;;2.88;2.67;;;;;;;21.48;54.18;64220.69;5055439;28;20225;-81
2023/09/28 08:26:20;;;;;;;3.00;2.22;;;;;;;21.41;53.69;64215.97;5062935;28;20235;-80
2023/09/28 08:28:48;;;;;;;3.47;2.45;;;;;;;21.61;54.27;64236.84;5059815;28;20207;-81
2023/09/28 08:31:34;;;;;;;5.20;2.90;;;;;;;21.92;53.01;64271.34;5055541;28;20205;-78
2023/09/28 08:34:05;;;;;;;3.30;3.00;;;;;;;22.24;51.95;64307.38;5065453;28;20197;-83
2023/09/28 08:36:32;;;;;;;5.35;2.92;;;;;;;22.40;51.85;64318.91;5062061;28;20246;-80
2023/09/28 08:39:00;;;;;;;7.40;3.20;;;;;;;22.28;52.18;64303.78;5065785;28;20220;-81
2023/09/28 08:44:26;;;;;;;7.25;2.95;;;;;;;22.51;50.78;64329.88;5059449;28;20220;-81
2023/09/28 08:46:59;;;;;;;10.18;3.83;;;;;;;22.62;50.50;64344.00;5055541;28;20264;-80
2023/09/28 08:49:29;;;;;;;11.60;3.03;;;;;;;22.92;50.37;64372.25;5056610;28;20232;-81
2023/09/28 08:54:41;;;;;;;5.20;3.28;;;;;;;23.39;49.17;64421.97;5057287;28;20223;-80
2023/09/28 08:57:12;;;;;;;3.22;2.97;;;;;;;22.85;48.90;64365.97;5056051;28;20221;-80
2023/09/28 08:59:42;;;;;;;5.38;3.03;;;;;;;22.79;49.50;64357.13;5054214;28;20249;-80
2023/09/28 09:02:11;;;;;;;5.00;3.05;;;;;;;22.42;48.75;64320.47;5057275;28;20265;-78
2023/09/28 09:04:38;;;;;;;3.33;2.85;;;;;;;22.07;50.60;64281.31;5050972;28;20229;-80
2023/09/28 09:07:06;;;;;;;4.38;2.83;;;;;;;22.27;49.25;64304.78;5052287;28;20189;-79
2023/09/28 09:09:37;;;;;;;4.82;2.78;;;;;;;22.01;50.75;64277.63;5057726;28;20239;-80
2023/09/28 09:12:09;;;;;;;4.53;2.70;;;;;;;22.29;51.60;64304.81;5063523;28;20484;-78
2023/09/28 09:14:37;;;;;;;3.63;3.13;;;;;;;22.16;53.44;64288.13;5058387;28;20265;-80
2023/09/28 09:17:08;;;;;;;5.90;2.80;;;;;;;22.13;50.45;64284.97;5058659;28;20247;-79
2023/09/28 09:19:35;;;;;;;4.60;2.95;;;;;;;22.08;51.15;64285.47;5052684;28;20220;-82
2023/09/28 09:22:05;;;;;;;5.28;3.05;;;;;;;22.01;50.93;64275.03;5056588;28;20205;-80
2023/09/28 09:24:32;;;;;;;9.35;2.58;;;;;;;22.11;52.05;64288.06;5053000;28;20231;-80
2023/09/28 09:27:00;;;;;;;5.32;2.63;;;;;;;21.97;51.24;64273.97;5054326;28;20192;-80
2023/09/28 09:29:28;;;;;;;8.85;2.97;;;;;;;21.95;52.91;64269.28;5060459;28;20417;-80
2023/09/28 09:31:54;;;;;;;4.53;2.90;;;;;;;21.87;51.42;64260.41;5053346;28;20203;-79
2023/09/28 09:34:24;;;;;;;4.07;2.92;;;;;;;21.60;53.41;64235.81;5058507;28;20540;-80
2023/09/28 09:36:55;;;;;;;4.53;2.92;;;;;;;21.68;51.80;64241.56;5051492;28;20291;-80
2023/09/28 09:39:28;;;;;;;7.72;2.95;;;;;;;21.64;52.43;64242.56;5058562;28;20248;-82
2023/09/28 09:44:40;;;;;;;7.18;3.35;;;;;;;21.92;53.33;64268.22;5063125;28;20222;-80
2023/09/28 09:47:07;;;;;;;5.70;3.17;;;;;;;22.20;53.57;64298.00;5062034;28;20197;-80
2023/09/28 09:49:54;;;;;;;4.50;2.85;;;;;;;22.41;50.43;64319.97;5060084;28;20221;-80
2023/09/28 09:52:26;;;;;;;6.10;3.95;;;;;;;22.18;50.99;64290.72;5060488;28;20270;-80
2023/09/28 09:55:12;;;;;;;3.47;3.17;;;;;;;22.56;51.56;64337.72;5055453;28;20218;-80
2023/09/28 09:57:42;;;;;;;6.20;3.78;;;;;;;22.95;48.79;64372.78;5056879;28;20228;-80
2023/09/28 10:00:15;;;;;;;5.82;2.90;;;;;;;22.87;49.74;64364.94;5058833;28;20205;-81
2023/09/28 10:02:45;;;;;;;6.22;3.10;;;;;;;22.56;50.63;64335.66;5065900;28;20200;-81
2023/09/28 10:05:34;;;;;;;5.50;2.92;;;;;;;22.74;49.00;64354.47;5061530;28;20243;-81
2023/09/28 10:08:03;;;;;;;7.43;2.72;;;;;;;22.74;48.75;64356.56;5066789;28;20200;-81
2023/09/28 10:10:31;;;;;;;3.00;2.72;;;;;;;22.41;48.72;64322.56;5059400;28;20355;-79
2023/09/28 10:12:59;;;;;;;4.35;3.08;;;;;;;22.35;49.17;64308.50;5061005;28;20197;-78
2023/09/28 10:15:28;;;;;;;5.47;3.00;;;;;;;22.56;49.14;64332.53;5063267;28;20244;-81
2023/09/28 10:18:01;;;;;;;3.92;3.13;;;;;;;22.76;48.75;64350.84;5057677;28;20271;-85
2023/09/28 10:20:30;;;;;;;6.85;2.72;;;;;;;22.77;49.83;64357.63;5062519;28;20202;-80
2023/09/28 10:22:57;;;;;;;8.45;3.47;;;;;;;22.89;50.78;64367.56;5057374;28;22605;-80
2023/09/28 10:25:25;;;;;;;5.57;3.58;;;;;;;22.77;50.34;64357.63;5060126;28;20220;-81
2023/09/28 10:28:00;;;;;;;4.85;3.30;;;;;;;23.01;50.24;64382.19;5055105;28;20250;-81
2023/09/28 10:30:27;;;;;;;6.28;2.90;;;;;;;23.16;49.89;64392.66;5061865;28;20488;-80
2023/09/28 10:32:57;;;;;;;4.55;3.88;;;;;;;22.97;50.10;64378.00;5066739;28;20200;-81
2023/09/28 10:35:32;;;;;;;4.70;3.28;;;;;;;23.01;50.60;64382.19;5067114;28;20217;-81
2023/09/28 10:38:19;;;;;;;5.90;3.60;;;;;;;22.86;49.62;64366.50;5053566;28;20232;-80
2023/09/28 10:40:49;;;;;;;5.07;3.40;;;;;;;22.81;49.58;64358.69;5067939;28;20221;-78
2023/09/28 10:46:13;;;;;;;4.55;3.72;;;;;;;22.59;49.48;64338.78;5056970;28;20231;-79
2023/09/28 10:48:41;;;;;;;2.95;2.72;;;;;;;22.84;50.91;64359.22;5061790;28;20398;-81
2023/09/28 10:51:16;;;;;;;4.53;2.95;;;;;;;22.59;49.04;64338.78;5069408;28;20255;-81
2023/09/28 10:53:47;;;;;;;3.25;3.05;;;;;;;22.72;49.23;64352.38;5069073;28;20204;-79
2023/09/28 10:56:15;;;;;;;7.70;3.28;;;;;;;22.61;49.74;64343.47;5052817;28;20198;-81
2023/09/28 10:59:04;;;;;;;10.27;3.38;;;;;;;22.59;50.71;64341.38;5069931;28;20220;-80
2023/09/28 11:01:32;;;;;;;7.03;3.35;;;;;;;22.58;51.04;64335.16;5070795;28;20204;-79
2023/09/28 11:06:46;;;;;;;3.78;3.53;;;;;;;22.65;50.50;64344.53;5053772;28;20220;-80
2023/09/28 11:09:15;;;;;;;7.13;3.13;;;;;;;22.77;50.87;64357.09;5062340;28;20231;-80
2023/09/28 11:11:42;;;;;;;10.57;3.35;;;;;;;22.28;52.41;64303.25;5049976;28;20473;-79
2023/09/28 11:14:10;;;;;;;10.82;4.03;;;;;;;21.89;52.38;64265.09;5049206;28;20230;-79
2023/09/28 11:16:39;;;;;;;3.25;2.97;;;;;;;21.78;52.75;64254.09;5067042;28;20243;-78
2023/09/28 11:19:07;;;;;;;6.68;3.80;;;;;;;21.88;52.83;64261.44;5051204;28;20205;-80
2023/09/28 11:21:59;;;;;;;11.07;3.55;;;;;;;22.24;52.06;64299.59;5050757;28;20224;-79
2023/09/28 11:24:44;;;;;;;5.90;3.25;;;;;;;22.56;52.25;64329.94;5050476;28;20233;-80
2023/09/28 11:27:12;;;;;;;7.50;3.33;;;;;;;22.68;51.58;64350.28;5051593;28;20197;-79
2023/09/28 11:29:43;;;;;;;6.43;3.03;;;;;;;22.48;51.25;64329.34;5051265;28;20565;-81
2023/09/28 11:32:11;;;;;;;6.70;3.22;;;;;;;22.29;50.60;64302.22;5053077;28;20212;-79
2023/09/28 11:34:40;;;;;;;3.63;3.03;;;;;;;22.27;50.22;64305.31;5060454;28;20217;-79
2023/09/28 11:42:43;;;;;;;3.17;2.97;;;;;;;22.31;51.83;64308.97;5061009;28;20230;-84
2023/09/28 11:45:12;;;;;;;3.95;3.13;;;;;;;22.71;49.89;64351.34;5064208;28;20315;-81
2023/09/28 11:47:45;;;;;;;3.30;3.10;;;;;;;22.82;50.52;64359.72;5069389;28;20196;-80
2023/09/28 11:50:31;;;;;;;8.35;3.72;;;;;;;23.19;48.71;64403.09;5073491;28;20228;-80
2023/09/28 11:53:00;;;;;;;10.57;3.30;;;;;;;23.19;49.16;64401.03;5068237;28;20196;-81
2023/09/28 11:55:28;;;;;;;3.53;2.30;;;;;;;23.26;49.25;64407.81;5072873;28;20288;-82
2023/09/28 11:57:59;;;;;;;7.13;3.40;;;;;;;23.68;48.16;64447.09;5070928;28;20231;-81
2023/09/28 12:00:27;;;;;;;2.90;2.70;;;;;;;23.97;47.16;64484.72;5066162;28;20280;-78
2023/09/28 12:02:54;;;;;;;4.63;3.50;;;;;;;23.66;47.30;64447.09;5059854;28;20206;-78
2023/09/28 12:05:25;;;;;;;6.15;3.15;;;;;;;23.03;48.42;64381.69;5058506;28;20416;-81
2023/09/28 12:07:52;;;;;;;3.85;3.13;;;;;;;22.94;49.42;64374.88;5054728;28;20229;-80
2023/09/28 12:10:21;;;;;;;7.43;3.10;;;;;;;23.29;48.86;64406.31;5064750;28;20256;-79
2023/09/28 12:12:48;;;;;;;8.98;3.53;;;;;;;23.29;48.26;64408.91;5059112;28;20201;-81
2023/09/28 12:15:15;;;;;;;9.10;3.63;;;;;;;23.13;48.62;64394.75;5055805;28;20316;-79
2023/09/28 12:18:04;;;;;;;7.30;3.25;;;;;;;23.04;49.81;64384.81;5064810;28;20249;-80
2023/09/28 12:20:31;;;;;;;3.53;2.63;;;;;;;23.05;48.64;64383.25;5060416;28;20280;-78
2023/09/28 12:22:58;;;;;;;5.72;3.17;;;;;;;22.73;48.94;64353.44;5065922;28;20268;-79
2023/09/28 12:25:28;;;;;;;3.15;2.88;;;;;;;22.62;49.57;64336.72;5058391;28;20240;-81
2023/09/28 12:27:57;;;;;;;4.20;3.30;;;;;;;22.54;50.90;64325.78;5064589;28;20208;-78
2023/09/28 12:30:26;;;;;;;4.57;2.85;;;;;;;22.53;50.53;64329.38;5055203;28;20220;-81
2023/09/28 12:32:54;;;;;;;3.53;3.30;;;;;;;22.52;50.64;64328.84;5052881;28;20257;-80
2023/09/28 12:35:21;;;;;;;3.10;2.90;;;;;;;22.77;50.49;64357.63;5056994;28;20283;-81
2023/09/28 12:37:49;;;;;;;3.20;2.90;;;;;;;22.92;49.52;64375.38;5057597;28;20240;-79
2023/09/28 12:40:17;;;;;;;6.03;3.30;;;;;;;22.96;51.15;64374.38;5049064;28;20217;-80
2023/09/28 12:42:46;;;;;;;6.60;3.13;;;;;;;23.17;50.24;64403.59;5064455;28;20193;-82
2023/09/28 12:48:19;;;;;;;4.57;3.42;;;;;;;22.96;50.09;64379.03;5066457;28;20401;-79
2023/09/28 12:50:48;;;;;;;7.20;3.00;;;;;;;22.93;50.52;64376.44;5061287;28;20235;-81
2023/09/28 12:53:16;;;;;;;4.82;3.35;;;;;;;22.80;51.48;64355.56;5058965;28;20193;-80
2023/09/28 12:58:47;;;;;;;3.47;3.17;;;;;;;22.93;50.56;64373.81;5068998;28;20254;-78
2023/09/28 13:01:14;;;;;;;8.15;3.97;;;;;;;23.17;50.48;64398.41;5065775;28;20204;-81
2023/09/28 13:03:44;;;;;;;3.78;2.83;;;;;;;23.32;49.36;64416.69;5060066;28;20211;-80
2023/09/28 13:06:11;;;;;;;4.82;2.78;;;;;;;23.39;49.19;64421.97;5052583;28;20216;-79
2023/09/28 13:08:39;;;;;;;4.38;2.88;;;;;;;23.62;48.84;64448.09;5054427;28;20204;-81
2023/09/28 13:11:12;;;;;;;4.88;3.28;;;;;;;23.68;49.06;64451.78;5050899;28;20229;-82
2023/09/28 13:13:40;;;;;;;6.40;3.10;;;;;;;23.36;49.43;64415.69;5054432;28;20204;-82
2023/09/28 13:16:11;;;;;;;8.38;3.88;;;;;;;23.56;49.02;64439.75;5061128;28;20269;-80
2023/09/28 13:18:38;;;;;;;3.22;2.92;;;;;;;23.38;48.69;64415.72;5051798;28;20225;-79
2023/09/28 13:21:05;;;;;;;4.05;3.25;;;;;;;23.36;49.51;64420.91;5062556;28;20275;-80
2023/09/28 13:23:33;;;;;;;5.93;2.90;;;;;;;22.96;50.72;64376.97;5061498;28;20189;-79
2023/09/28 13:26:00;;;;;;;3.85;3.42;;;;;;;22.57;52.37;64341.88;5059199;28;20544;-77
2023/09/28 13:28:27;;;;;;;4.72;3.00;;;;;;;22.33;52.49;64311.59;5059196;28;20277;-81